sensor_id;sensor_type;location;lat;lon;timestamp;P1;durP1;ratioP1;P2;durP2;ratioP2
50417;SDS011;36346;48.280;14.292;2022-10-16T00:01:40;10.73;;;10.71;;
50417;SDS011;36346;48.280;14.292;2022-10-16T00:04:08;11.17;;;11.12;;
50417;SDS011;36346;48.280;14.292;2022-10-16T00:06:37;11.07;;;11.03;;
50417;SDS011;36346;48.280;14.292;2022-10-16T00:09:06;10.94;;;10.91;;
50417;SDS011;36346;48.280;14.292;2022-10-16T00:11:35;11.28;;;11.28;;
50417;SDS011;36346;48.280;14.292;2022-10-16T00:14:14;11.11;;;11.11;;
50417;SDS011;36346;48.280;14.292;2022-10-16T00:16:43;11.69;;;11.62;;
50417;SDS011;36346;48.280;14.292;2022-10-16T00:19:11;11.88;;;11.85;;
50417;SDS011;36346;48.280;14.292;2022-10-16T00:21:40;11.43;;;11.38;;
50417;SDS011;36346;48.280;14.292;2022-10-16T00:24:26;12.03;;;11.95;;
50417;SDS011;36346;48.280;14.292;2022-10-16T00:26:54;11.96;;;11.95;;
50417;SDS011;36346;48.280;14.292;2022-10-16T00:29:22;12.27;;;12.23;;
50417;SDS011;36346;48.280;14.292;2022-10-16T00:31:50;12.68;;;12.67;;
50417;SDS011;36346;48.280;14.292;2022-10-16T00:34:18;13.99;;;13.98;;
50417;SDS011;36346;48.280;14.292;2022-10-16T00:36:46;14.30;;;14.24;;
50417;SDS011;36346;48.280;14.292;2022-10-16T00:39:14;14.28;;;14.22;;
50417;SDS011;36346;48.280;14.292;2022-10-16T00:41:42;13.19;;;13.18;;
50417;SDS011;36346;48.280;14.292;2022-10-16T00:47:20;13.01;;;12.96;;
50417;SDS011;36346;48.280;14.292;2022-10-16T00:52:56;12.97;;;12.88;;
50417;SDS011;36346;48.280;14.292;2022-10-16T00:55:25;12.98;;;12.93;;
50417;SDS011;36346;48.280;14.292;2022-10-16T00:57:55;13.19;;;13.19;;
50417;SDS011;36346;48.280;14.292;2022-10-16T01:00:26;13.45;;;13.45;;
50417;SDS011;36346;48.280;14.292;2022-10-16T01:02:55;13.02;;;12.97;;
50417;SDS011;36346;48.280;14.292;2022-10-16T01:05:30;12.80;;;12.65;;
50417;SDS011;36346;48.280;14.292;2022-10-16T01:08:14;12.14;;;12.12;;
50417;SDS011;36346;48.280;14.292;2022-10-16T01:13:42;11.69;;;11.69;;
50417;SDS011;36346;48.280;14.292;2022-10-16T01:16:19;11.40;;;11.40;;
50417;SDS011;36346;48.280;14.292;2022-10-16T01:19:30;11.85;;;11.85;;
50417;SDS011;36346;48.280;14.292;2022-10-16T01:21:57;11.60;;;11.60;;
50417;SDS011;36346;48.280;14.292;2022-10-16T01:24:40;11.96;;;11.96;;
50417;SDS011;36346;48.280;14.292;2022-10-16T01:27:18;11.71;;;11.71;;
50417;SDS011;36346;48.280;14.292;2022-10-16T01:32:38;11.74;;;11.74;;
50417;SDS011;36346;48.280;14.292;2022-10-16T01:35:09;12.23;;;12.23;;
50417;SDS011;36346;48.280;14.292;2022-10-16T01:37:46;11.49;;;11.49;;
50417;SDS011;36346;48.280;14.292;2022-10-16T01:40:17;11.31;;;11.31;;
50417;SDS011;36346;48.280;14.292;2022-10-16T01:42:49;10.75;;;10.74;;
50417;SDS011;36346;48.280;14.292;2022-10-16T01:45:23;10.35;;;10.35;;
50417;SDS011;36346;48.280;14.292;2022-10-16T01:47:51;10.32;;;10.32;;
50417;SDS011;36346;48.280;14.292;2022-10-16T01:50:20;10.87;;;10.87;;
50417;SDS011;36346;48.280;14.292;2022-10-16T01:52:49;10.36;;;10.36;;
50417;SDS011;36346;48.280;14.292;2022-10-16T01:55:28;10.14;;;10.14;;
50417;SDS011;36346;48.280;14.292;2022-10-16T01:58:00;11.82;;;11.79;;
50417;SDS011;36346;48.280;14.292;2022-10-16T02:00:31;11.28;;;11.28;;
50417;SDS011;36346;48.280;14.292;2022-10-16T02:02:59;10.63;;;10.63;;
50417;SDS011;36346;48.280;14.292;2022-10-16T02:05:38;11.13;;;11.13;;
50417;SDS011;36346;48.280;14.292;2022-10-16T02:08:10;10.71;;;10.71;;
50417;SDS011;36346;48.280;14.292;2022-10-16T02:10:38;10.51;;;10.51;;
50417;SDS011;36346;48.280;14.292;2022-10-16T02:13:09;10.62;;;10.62;;
50417;SDS011;36346;48.280;14.292;2022-10-16T02:15:38;10.56;;;10.56;;
50417;SDS011;36346;48.280;14.292;2022-10-16T02:18:06;10.99;;;10.99;;
50417;SDS011;36346;48.280;14.292;2022-10-16T02:20:51;11.17;;;11.17;;
50417;SDS011;36346;48.280;14.292;2022-10-16T02:23:50;10.71;;;10.71;;
50417;SDS011;36346;48.280;14.292;2022-10-16T02:26:26;10.96;;;10.96;;
50417;SDS011;36346;48.280;14.292;2022-10-16T02:29:06;11.25;;;11.25;;
50417;SDS011;36346;48.280;14.292;2022-10-16T02:31:41;11.56;;;11.56;;
50417;SDS011;36346;48.280;14.292;2022-10-16T02:34:14;11.65;;;11.62;;
50417;SDS011;36346;48.280;14.292;2022-10-16T02:36:46;11.52;;;11.51;;
50417;SDS011;36346;48.280;14.292;2022-10-16T02:39:16;11.22;;;11.21;;
50417;SDS011;36346;48.280;14.292;2022-10-16T02:41:46;11.33;;;11.33;;
50417;SDS011;36346;48.280;14.292;2022-10-16T02:44:15;11.55;;;11.55;;
50417;SDS011;36346;48.280;14.292;2022-10-16T02:46:43;12.15;;;12.13;;
50417;SDS011;36346;48.280;14.292;2022-10-16T02:49:10;12.00;;;11.98;;
50417;SDS011;36346;48.280;14.292;2022-10-16T02:51:38;11.75;;;11.74;;
50417;SDS011;36346;48.280;14.292;2022-10-16T02:54:06;11.19;;;11.19;;
50417;SDS011;36346;48.280;14.292;2022-10-16T02:56:34;11.26;;;11.26;;
50417;SDS011;36346;48.280;14.292;2022-10-16T02:59:02;10.76;;;10.76;;
50417;SDS011;36346;48.280;14.292;2022-10-16T03:01:30;11.33;;;11.33;;
50417;SDS011;36346;48.280;14.292;2022-10-16T03:03:59;10.68;;;10.68;;
50417;SDS011;36346;48.280;14.292;2022-10-16T03:06:27;11.55;;;11.52;;
50417;SDS011;36346;48.280;14.292;2022-10-16T03:08:55;11.14;;;11.14;;
50417;SDS011;36346;48.280;14.292;2022-10-16T03:11:23;11.53;;;11.53;;
50417;SDS011;36346;48.280;14.292;2022-10-16T03:13:51;11.14;;;11.14;;
50417;SDS011;36346;48.280;14.292;2022-10-16T03:16:20;12.42;;;12.42;;
50417;SDS011;36346;48.280;14.292;2022-10-16T03:18:48;12.14;;;12.11;;
50417;SDS011;36346;48.280;14.292;2022-10-16T03:21:17;11.83;;;11.83;;
50417;SDS011;36346;48.280;14.292;2022-10-16T03:23:45;11.19;;;11.19;;
50417;SDS011;36346;48.280;14.292;2022-10-16T03:26:14;11.43;;;11.42;;
50417;SDS011;36346;48.280;14.292;2022-10-16T03:28:42;11.64;;;11.64;;
50417;SDS011;36346;48.280;14.292;2022-10-16T03:31:10;11.66;;;11.61;;
50417;SDS011;36346;48.280;14.292;2022-10-16T03:33:38;11.92;;;11.92;;
50417;SDS011;36346;48.280;14.292;2022-10-16T03:36:06;11.81;;;11.81;;
50417;SDS011;36346;48.280;14.292;2022-10-16T03:38:34;12.79;;;12.79;;
50417;SDS011;36346;48.280;14.292;2022-10-16T03:41:02;12.43;;;12.42;;
50417;SDS011;36346;48.280;14.292;2022-10-16T03:43:31;11.73;;;11.73;;
50417;SDS011;36346;48.280;14.292;2022-10-16T03:45:59;11.54;;;11.54;;
50417;SDS011;36346;48.280;14.292;2022-10-16T03:48:27;11.99;;;11.98;;
50417;SDS011;36346;48.280;14.292;2022-10-16T03:50:55;11.62;;;11.61;;
50417;SDS011;36346;48.280;14.292;2022-10-16T03:53:23;11.59;;;11.59;;
50417;SDS011;36346;48.280;14.292;2022-10-16T03:55:51;10.84;;;10.84;;
50417;SDS011;36346;48.280;14.292;2022-10-16T03:58:19;10.80;;;10.80;;
50417;SDS011;36346;48.280;14.292;2022-10-16T04:00:47;10.60;;;10.60;;
50417;SDS011;36346;48.280;14.292;2022-10-16T04:03:16;11.52;;;11.52;;
50417;SDS011;36346;48.280;14.292;2022-10-16T04:05:44;11.97;;;11.95;;
50417;SDS011;36346;48.280;14.292;2022-10-16T04:08:13;11.99;;;11.99;;
50417;SDS011;36346;48.280;14.292;2022-10-16T04:10:42;12.72;;;12.72;;
50417;SDS011;36346;48.280;14.292;2022-10-16T04:13:11;12.06;;;12.04;;
50417;SDS011;36346;48.280;14.292;2022-10-16T04:15:39;11.41;;;11.41;;
50417;SDS011;36346;48.280;14.292;2022-10-16T04:18:07;11.26;;;11.26;;
50417;SDS011;36346;48.280;14.292;2022-10-16T04:20:35;11.35;;;11.27;;
50417;SDS011;36346;48.280;14.292;2022-10-16T04:23:03;11.20;;;11.20;;
50417;SDS011;36346;48.280;14.292;2022-10-16T04:25:31;12.00;;;12.00;;
50417;SDS011;36346;48.280;14.292;2022-10-16T04:27:59;11.75;;;11.75;;
50417;SDS011;36346;48.280;14.292;2022-10-16T04:30:27;11.69;;;11.66;;
50417;SDS011;36346;48.280;14.292;2022-10-16T04:32:55;12.04;;;12.04;;
50417;SDS011;36346;48.280;14.292;2022-10-16T04:35:23;11.75;;;11.73;;
50417;SDS011;36346;48.280;14.292;2022-10-16T04:37:51;11.84;;;11.80;;
50417;SDS011;36346;48.280;14.292;2022-10-16T04:40:19;12.20;;;12.16;;
50417;SDS011;36346;48.280;14.292;2022-10-16T04:42:47;12.14;;;12.13;;
50417;SDS011;36346;48.280;14.292;2022-10-16T04:45:15;11.85;;;11.84;;
50417;SDS011;36346;48.280;14.292;2022-10-16T04:47:43;12.98;;;12.95;;
50417;SDS011;36346;48.280;14.292;2022-10-16T04:50:11;12.91;;;12.91;;
50417;SDS011;36346;48.280;14.292;2022-10-16T04:52:40;12.81;;;12.80;;
50417;SDS011;36346;48.280;14.292;2022-10-16T04:55:08;13.09;;;13.06;;
50417;SDS011;36346;48.280;14.292;2022-10-16T04:57:35;12.76;;;12.73;;
50417;SDS011;36346;48.280;14.292;2022-10-16T05:00:04;13.63;;;13.62;;
50417;SDS011;36346;48.280;14.292;2022-10-16T05:02:33;13.21;;;13.19;;
50417;SDS011;36346;48.280;14.292;2022-10-16T05:05:01;13.37;;;13.35;;
50417;SDS011;36346;48.280;14.292;2022-10-16T05:07:29;12.90;;;12.89;;
50417;SDS011;36346;48.280;14.292;2022-10-16T05:09:57;12.92;;;12.89;;
50417;SDS011;36346;48.280;14.292;2022-10-16T05:12:25;12.63;;;12.58;;
50417;SDS011;36346;48.280;14.292;2022-10-16T05:14:53;12.58;;;12.57;;
50417;SDS011;36346;48.280;14.292;2022-10-16T05:17:26;13.09;;;13.09;;
50417;SDS011;36346;48.280;14.292;2022-10-16T05:19:55;13.15;;;13.14;;
50417;SDS011;36346;48.280;14.292;2022-10-16T05:22:23;13.51;;;13.50;;
50417;SDS011;36346;48.280;14.292;2022-10-16T05:24:51;12.88;;;12.86;;
50417;SDS011;36346;48.280;14.292;2022-10-16T05:27:19;12.36;;;12.35;;
50417;SDS011;36346;48.280;14.292;2022-10-16T05:29:47;12.56;;;12.55;;
50417;SDS011;36346;48.280;14.292;2022-10-16T05:32:16;12.89;;;12.86;;
50417;SDS011;36346;48.280;14.292;2022-10-16T05:34:45;12.79;;;12.79;;
50417;SDS011;36346;48.280;14.292;2022-10-16T05:37:13;12.93;;;12.91;;
50417;SDS011;36346;48.280;14.292;2022-10-16T05:39:41;13.17;;;13.10;;
50417;SDS011;36346;48.280;14.292;2022-10-16T05:42:09;13.79;;;13.78;;
50417;SDS011;36346;48.280;14.292;2022-10-16T05:44:37;14.58;;;14.55;;
50417;SDS011;36346;48.280;14.292;2022-10-16T05:47:05;14.89;;;14.84;;
50417;SDS011;36346;48.280;14.292;2022-10-16T05:49:33;14.76;;;14.70;;
50417;SDS011;36346;48.280;14.292;2022-10-16T05:52:07;14.16;;;14.12;;
50417;SDS011;36346;48.280;14.292;2022-10-16T05:54:35;14.52;;;14.43;;
50417;SDS011;36346;48.280;14.292;2022-10-16T05:57:03;13.68;;;13.64;;
50417;SDS011;36346;48.280;14.292;2022-10-16T05:59:33;17.46;;;17.19;;
50417;SDS011;36346;48.280;14.292;2022-10-16T06:02:01;17.28;;;16.92;;
50417;SDS011;36346;48.280;14.292;2022-10-16T06:04:29;18.22;;;17.76;;
50417;SDS011;36346;48.280;14.292;2022-10-16T06:07:00;17.76;;;17.27;;
50417;SDS011;36346;48.280;14.292;2022-10-16T06:09:28;20.48;;;19.93;;
50417;SDS011;36346;48.280;14.292;2022-10-16T06:11:56;22.85;;;22.00;;
50417;SDS011;36346;48.280;14.292;2022-10-16T06:14:24;21.31;;;20.64;;
50417;SDS011;36346;48.280;14.292;2022-10-16T06:16:52;21.36;;;20.80;;
50417;SDS011;36346;48.280;14.292;2022-10-16T06:19:20;21.05;;;20.76;;
50417;SDS011;36346;48.280;14.292;2022-10-16T06:21:48;21.94;;;21.74;;
50417;SDS011;36346;48.280;14.292;2022-10-16T06:24:16;23.69;;;23.20;;
50417;SDS011;36346;48.280;14.292;2022-10-16T06:26:44;23.38;;;23.13;;
50417;SDS011;36346;48.280;14.292;2022-10-16T06:29:12;24.50;;;23.97;;
50417;SDS011;36346;48.280;14.292;2022-10-16T06:31:40;24.16;;;23.75;;
50417;SDS011;36346;48.280;14.292;2022-10-16T06:34:11;23.15;;;22.74;;
50417;SDS011;36346;48.280;14.292;2022-10-16T06:36:39;24.99;;;24.62;;
50417;SDS011;36346;48.280;14.292;2022-10-16T06:39:07;25.06;;;24.77;;
50417;SDS011;36346;48.280;14.292;2022-10-16T06:41:35;25.79;;;25.36;;
50417;SDS011;36346;48.280;14.292;2022-10-16T06:44:15;25.76;;;25.43;;
50417;SDS011;36346;48.280;14.292;2022-10-16T06:46:42;27.01;;;26.61;;
50417;SDS011;36346;48.280;14.292;2022-10-16T06:49:10;27.26;;;26.59;;
50417;SDS011;36346;48.280;14.292;2022-10-16T06:51:38;28.12;;;27.59;;
50417;SDS011;36346;48.280;14.292;2022-10-16T06:54:10;30.46;;;29.76;;
50417;SDS011;36346;48.280;14.292;2022-10-16T06:56:38;31.86;;;31.02;;
50417;SDS011;36346;48.280;14.292;2022-10-16T06:59:06;31.05;;;30.10;;
50417;SDS011;36346;48.280;14.292;2022-10-16T07:01:34;32.25;;;30.98;;
50417;SDS011;36346;48.280;14.292;2022-10-16T07:04:02;34.72;;;33.18;;
50417;SDS011;36346;48.280;14.292;2022-10-16T07:06:31;34.47;;;33.42;;
50417;SDS011;36346;48.280;14.292;2022-10-16T07:09:02;35.67;;;34.69;;
50417;SDS011;36346;48.280;14.292;2022-10-16T07:11:33;35.12;;;34.07;;
50417;SDS011;36346;48.280;14.292;2022-10-16T07:14:01;33.85;;;32.86;;
50417;SDS011;36346;48.280;14.292;2022-10-16T07:16:31;35.89;;;34.59;;
50417;SDS011;36346;48.280;14.292;2022-10-16T07:19:01;37.83;;;36.50;;
50417;SDS011;36346;48.280;14.292;2022-10-16T07:21:31;39.38;;;37.41;;
50417;SDS011;36346;48.280;14.292;2022-10-16T07:24:04;39.63;;;38.05;;
50417;SDS011;36346;48.280;14.292;2022-10-16T07:26:35;44.34;;;41.62;;
50417;SDS011;36346;48.280;14.292;2022-10-16T07:29:04;44.57;;;41.78;;
50417;SDS011;36346;48.280;14.292;2022-10-16T07:31:41;46.48;;;43.14;;
50417;SDS011;36346;48.280;14.292;2022-10-16T07:34:09;47.58;;;44.37;;
50417;SDS011;36346;48.280;14.292;2022-10-16T07:36:38;51.10;;;47.63;;
50417;SDS011;36346;48.280;14.292;2022-10-16T07:39:12;51.02;;;47.37;;
50417;SDS011;36346;48.280;14.292;2022-10-16T07:41:40;53.58;;;50.16;;
50417;SDS011;36346;48.280;14.292;2022-10-16T07:44:08;55.26;;;52.27;;
50417;SDS011;36346;48.280;14.292;2022-10-16T07:46:36;55.32;;;52.63;;
50417;SDS011;36346;48.280;14.292;2022-10-16T07:49:04;53.43;;;50.88;;
50417;SDS011;36346;48.280;14.292;2022-10-16T07:51:32;49.59;;;47.78;;
50417;SDS011;36346;48.280;14.292;2022-10-16T07:54:00;50.09;;;48.52;;
50417;SDS011;36346;48.280;14.292;2022-10-16T07:56:29;47.65;;;46.47;;
50417;SDS011;36346;48.280;14.292;2022-10-16T07:58:58;42.36;;;41.65;;
50417;SDS011;36346;48.280;14.292;2022-10-16T08:01:26;36.58;;;36.30;;
50417;SDS011;36346;48.280;14.292;2022-10-16T08:03:54;32.79;;;32.60;;
50417;SDS011;36346;48.280;14.292;2022-10-16T08:06:22;29.98;;;29.92;;
50417;SDS011;36346;48.280;14.292;2022-10-16T08:08:55;28.15;;;27.98;;
50417;SDS011;36346;48.280;14.292;2022-10-16T08:11:23;27.14;;;27.11;;
50417;SDS011;36346;48.280;14.292;2022-10-16T08:13:51;27.47;;;27.46;;
50417;SDS011;36346;48.280;14.292;2022-10-16T08:16:20;27.53;;;27.43;;
50417;SDS011;36346;48.280;14.292;2022-10-16T08:18:48;30.04;;;29.99;;
50417;SDS011;36346;48.280;14.292;2022-10-16T08:21:20;30.10;;;29.91;;
50417;SDS011;36346;48.280;14.292;2022-10-16T08:23:51;28.31;;;28.20;;
50417;SDS011;36346;48.280;14.292;2022-10-16T08:26:25;27.10;;;27.05;;
50417;SDS011;36346;48.280;14.292;2022-10-16T08:28:55;24.93;;;24.93;;
50417;SDS011;36346;48.280;14.292;2022-10-16T08:31:23;23.69;;;23.67;;
50417;SDS011;36346;48.280;14.292;2022-10-16T08:33:53;20.74;;;20.74;;
50417;SDS011;36346;48.280;14.292;2022-10-16T08:36:22;17.51;;;17.51;;
50417;SDS011;36346;48.280;14.292;2022-10-16T08:38:50;16.19;;;16.19;;
50417;SDS011;36346;48.280;14.292;2022-10-16T08:49:42;12.75;;;12.75;;
50417;SDS011;36346;48.280;14.292;2022-10-16T08:52:28;12.07;;;12.07;;
50417;SDS011;36346;48.280;14.292;2022-10-16T08:54:58;11.56;;;11.56;;
50417;SDS011;36346;48.280;14.292;2022-10-16T08:57:26;12.22;;;12.22;;
50417;SDS011;36346;48.280;14.292;2022-10-16T08:59:56;13.27;;;13.27;;
50417;SDS011;36346;48.280;14.292;2022-10-16T09:07:49;12.52;;;12.52;;
50417;SDS011;36346;48.280;14.292;2022-10-16T09:10:50;11.85;;;11.85;;
50417;SDS011;36346;48.280;14.292;2022-10-16T09:13:45;11.53;;;11.53;;
50417;SDS011;36346;48.280;14.292;2022-10-16T09:16:46;10.44;;;10.44;;
50417;SDS011;36346;48.280;14.292;2022-10-16T09:19:28;10.57;;;10.57;;
50417;SDS011;36346;48.280;14.292;2022-10-16T09:22:04;10.83;;;10.83;;
50417;SDS011;36346;48.280;14.292;2022-10-16T09:24:42;10.84;;;10.84;;
50417;SDS011;36346;48.280;14.292;2022-10-16T09:27:14;10.85;;;10.85;;
50417;SDS011;36346;48.280;14.292;2022-10-16T09:29:42;11.23;;;11.23;;
50417;SDS011;36346;48.280;14.292;2022-10-16T09:32:11;10.90;;;10.90;;
50417;SDS011;36346;48.280;14.292;2022-10-16T09:34:43;10.39;;;10.39;;
50417;SDS011;36346;48.280;14.292;2022-10-16T09:37:17;9.06;;;9.06;;
50417;SDS011;36346;48.280;14.292;2022-10-16T09:39:51;7.35;;;7.35;;
50417;SDS011;36346;48.280;14.292;2022-10-16T09:42:21;7.13;;;7.13;;
50417;SDS011;36346;48.280;14.292;2022-10-16T09:44:54;7.05;;;7.05;;
50417;SDS011;36346;48.280;14.292;2022-10-16T09:47:23;8.09;;;8.09;;
50417;SDS011;36346;48.280;14.292;2022-10-16T09:49:57;8.53;;;8.53;;
50417;SDS011;36346;48.280;14.292;2022-10-16T09:52:29;8.31;;;8.31;;
50417;SDS011;36346;48.280;14.292;2022-10-16T09:55:17;8.70;;;8.70;;
50417;SDS011;36346;48.280;14.292;2022-10-16T09:57:52;9.22;;;9.22;;
50417;SDS011;36346;48.280;14.292;2022-10-16T10:00:21;8.65;;;8.65;;
50417;SDS011;36346;48.280;14.292;2022-10-16T10:02:50;8.45;;;8.45;;
50417;SDS011;36346;48.280;14.292;2022-10-16T10:05:22;8.52;;;8.52;;
50417;SDS011;36346;48.280;14.292;2022-10-16T10:08:12;7.92;;;7.92;;
50417;SDS011;36346;48.280;14.292;2022-10-16T10:10:44;7.77;;;7.77;;
50417;SDS011;36346;48.280;14.292;2022-10-16T10:13:17;7.68;;;7.68;;
50417;SDS011;36346;48.280;14.292;2022-10-16T10:15:47;7.48;;;7.48;;
50417;SDS011;36346;48.280;14.292;2022-10-16T10:18:16;7.48;;;7.48;;
50417;SDS011;36346;48.280;14.292;2022-10-16T10:20:46;7.75;;;7.75;;
50417;SDS011;36346;48.280;14.292;2022-10-16T10:23:28;8.17;;;8.17;;
50417;SDS011;36346;48.280;14.292;2022-10-16T10:26:05;9.15;;;9.15;;
50417;SDS011;36346;48.280;14.292;2022-10-16T10:35:07;8.99;;;8.99;;
50417;SDS011;36346;48.280;14.292;2022-10-16T10:40:29;8.50;;;8.50;;
50417;SDS011;36346;48.280;14.292;2022-10-16T10:43:42;9.05;;;9.05;;
50417;SDS011;36346;48.280;14.292;2022-10-16T10:46:35;9.04;;;9.04;;
50417;SDS011;36346;48.280;14.292;2022-10-16T10:49:28;9.13;;;9.11;;
50417;SDS011;36346;48.280;14.292;2022-10-16T10:54:59;9.95;;;9.92;;
50417;SDS011;36346;48.280;14.292;2022-10-16T11:00:42;9.54;;;9.47;;
50417;SDS011;36346;48.280;14.292;2022-10-16T11:06:10;10.18;;;10.12;;
50417;SDS011;36346;48.280;14.292;2022-10-16T11:08:46;9.66;;;9.60;;
50417;SDS011;36346;48.280;14.292;2022-10-16T11:11:34;9.68;;;9.63;;
50417;SDS011;36346;48.280;14.292;2022-10-16T11:14:14;9.30;;;9.26;;
50417;SDS011;36346;48.280;14.292;2022-10-16T11:16:53;9.22;;;9.20;;
50417;SDS011;36346;48.280;14.292;2022-10-16T11:30:26;6.63;;;6.62;;
50417;SDS011;36346;48.280;14.292;2022-10-16T11:33:04;7.56;;;7.51;;
50417;SDS011;36346;48.280;14.292;2022-10-16T11:35:51;6.00;;;5.95;;
50417;SDS011;36346;48.280;14.292;2022-10-16T11:38:52;5.47;;;5.45;;
50417;SDS011;36346;48.280;14.292;2022-10-16T11:41:44;4.61;;;4.59;;
50417;SDS011;36346;48.280;14.292;2022-10-16T11:49:53;4.62;;;4.61;;
50417;SDS011;36346;48.280;14.292;2022-10-16T11:52:33;4.45;;;4.45;;
50417;SDS011;36346;48.280;14.292;2022-10-16T11:55:22;4.19;;;4.19;;
50417;SDS011;36346;48.280;14.292;2022-10-16T11:58:00;4.12;;;4.12;;
50417;SDS011;36346;48.280;14.292;2022-10-16T12:03:17;2.87;;;2.87;;
50417;SDS011;36346;48.280;14.292;2022-10-16T12:08:40;3.83;;;3.83;;
50417;SDS011;36346;48.280;14.292;2022-10-16T12:11:23;2.93;;;2.93;;
50417;SDS011;36346;48.280;14.292;2022-10-16T12:16:33;2.56;;;2.56;;
50417;SDS011;36346;48.280;14.292;2022-10-16T12:19:12;2.73;;;2.73;;
50417;SDS011;36346;48.280;14.292;2022-10-16T12:21:42;2.57;;;2.57;;
50417;SDS011;36346;48.280;14.292;2022-10-16T12:27:03;2.52;;;2.52;;
50417;SDS011;36346;48.280;14.292;2022-10-16T12:29:37;2.03;;;2.03;;
50417;SDS011;36346;48.280;14.292;2022-10-16T12:35:21;1.85;;;1.85;;
50417;SDS011;36346;48.280;14.292;2022-10-16T12:37:52;1.89;;;1.89;;
50417;SDS011;36346;48.280;14.292;2022-10-16T12:40:30;1.63;;;1.63;;
50417;SDS011;36346;48.280;14.292;2022-10-16T12:43:11;2.10;;;2.10;;
50417;SDS011;36346;48.280;14.292;2022-10-16T12:48:37;2.31;;;2.31;;
50417;SDS011;36346;48.280;14.292;2022-10-16T13:04:53;1.97;;;1.97;;
50417;SDS011;36346;48.280;14.292;2022-10-16T13:16:22;1.40;;;1.40;;
50417;SDS011;36346;48.280;14.292;2022-10-16T13:22:05;2.32;;;2.31;;
50417;SDS011;36346;48.280;14.292;2022-10-16T13:33:02;1.24;;;1.22;;
50417;SDS011;36346;48.280;14.292;2022-10-16T13:35:34;1.45;;;1.44;;
50417;SDS011;36346;48.280;14.292;2022-10-16T13:38:24;1.44;;;1.44;;
50417;SDS011;36346;48.280;14.292;2022-10-16T13:40:55;1.25;;;1.25;;
50417;SDS011;36346;48.280;14.292;2022-10-16T13:43:26;1.37;;;1.37;;
50417;SDS011;36346;48.280;14.292;2022-10-16T13:48:26;1.34;;;1.32;;
50417;SDS011;36346;48.280;14.292;2022-10-16T13:51:01;1.29;;;1.28;;
50417;SDS011;36346;48.280;14.292;2022-10-16T13:53:31;1.40;;;1.40;;
50417;SDS011;36346;48.280;14.292;2022-10-16T13:56:01;1.28;;;1.28;;
50417;SDS011;36346;48.280;14.292;2022-10-16T13:58:31;1.34;;;1.34;;
50417;SDS011;36346;48.280;14.292;2022-10-16T14:01:00;1.41;;;1.41;;
50417;SDS011;36346;48.280;14.292;2022-10-16T14:03:30;1.53;;;1.53;;
50417;SDS011;36346;48.280;14.292;2022-10-16T14:06:01;1.45;;;1.44;;
50417;SDS011;36346;48.280;14.292;2022-10-16T14:08:31;1.64;;;1.63;;
50417;SDS011;36346;48.280;14.292;2022-10-16T14:10:59;1.68;;;1.68;;
50417;SDS011;36346;48.280;14.292;2022-10-16T14:13:30;1.67;;;1.67;;
50417;SDS011;36346;48.280;14.292;2022-10-16T14:16:09;4.01;;;4.01;;
50417;SDS011;36346;48.280;14.292;2022-10-16T14:18:44;5.33;;;5.32;;
50417;SDS011;36346;48.280;14.292;2022-10-16T14:21:17;3.95;;;3.94;;
50417;SDS011;36346;48.280;14.292;2022-10-16T14:23:45;2.78;;;2.78;;
50417;SDS011;36346;48.280;14.292;2022-10-16T14:26:15;2.72;;;2.72;;
50417;SDS011;36346;48.280;14.292;2022-10-16T14:28:45;2.54;;;2.54;;
50417;SDS011;36346;48.280;14.292;2022-10-16T14:33:49;1.70;;;1.70;;
50417;SDS011;36346;48.280;14.292;2022-10-16T14:36:17;1.83;;;1.83;;
50417;SDS011;36346;48.280;14.292;2022-10-16T14:38:57;2.00;;;2.00;;
50417;SDS011;36346;48.280;14.292;2022-10-16T14:41:40;1.93;;;1.93;;
50417;SDS011;36346;48.280;14.292;2022-10-16T14:44:11;2.15;;;2.15;;
50417;SDS011;36346;48.280;14.292;2022-10-16T14:46:41;2.31;;;2.31;;
50417;SDS011;36346;48.280;14.292;2022-10-16T14:51:39;2.05;;;2.05;;
50417;SDS011;36346;48.280;14.292;2022-10-16T14:54:09;2.62;;;2.62;;
50417;SDS011;36346;48.280;14.292;2022-10-16T14:59:13;2.05;;;2.03;;
50417;SDS011;36346;48.280;14.292;2022-10-16T15:02:12;2.15;;;2.13;;
50417;SDS011;36346;48.280;14.292;2022-10-16T15:04:45;2.02;;;2.01;;
50417;SDS011;36346;48.280;14.292;2022-10-16T15:07:13;1.97;;;1.97;;
50417;SDS011;36346;48.280;14.292;2022-10-16T15:09:41;2.23;;;2.21;;
50417;SDS011;36346;48.280;14.292;2022-10-16T15:12:16;2.18;;;2.18;;
50417;SDS011;36346;48.280;14.292;2022-10-16T15:14:44;2.11;;;2.11;;
50417;SDS011;36346;48.280;14.292;2022-10-16T15:17:12;2.15;;;2.15;;
50417;SDS011;36346;48.280;14.292;2022-10-16T15:19:43;1.86;;;1.86;;
50417;SDS011;36346;48.280;14.292;2022-10-16T15:22:12;2.83;;;2.83;;
50417;SDS011;36346;48.280;14.292;2022-10-16T15:24:40;2.27;;;2.27;;
50417;SDS011;36346;48.280;14.292;2022-10-16T15:27:08;1.94;;;1.94;;
50417;SDS011;36346;48.280;14.292;2022-10-16T15:29:36;2.13;;;2.13;;
50417;SDS011;36346;48.280;14.292;2022-10-16T15:32:04;2.25;;;2.25;;
50417;SDS011;36346;48.280;14.292;2022-10-16T15:34:32;2.27;;;2.27;;
50417;SDS011;36346;48.280;14.292;2022-10-16T15:37:02;2.03;;;2.03;;
50417;SDS011;36346;48.280;14.292;2022-10-16T15:39:30;2.16;;;2.16;;
50417;SDS011;36346;48.280;14.292;2022-10-16T15:41:58;2.11;;;2.09;;
50417;SDS011;36346;48.280;14.292;2022-10-16T15:44:26;2.28;;;2.26;;
50417;SDS011;36346;48.280;14.292;2022-10-16T15:46:57;2.56;;;2.54;;
50417;SDS011;36346;48.280;14.292;2022-10-16T15:49:25;2.33;;;2.31;;
50417;SDS011;36346;48.280;14.292;2022-10-16T15:51:53;2.58;;;2.57;;
50417;SDS011;36346;48.280;14.292;2022-10-16T15:54:22;2.44;;;2.44;;
50417;SDS011;36346;48.280;14.292;2022-10-16T15:56:50;2.43;;;2.43;;
50417;SDS011;36346;48.280;14.292;2022-10-16T15:59:20;2.14;;;2.14;;
50417;SDS011;36346;48.280;14.292;2022-10-16T16:01:49;2.64;;;2.63;;
50417;SDS011;36346;48.280;14.292;2022-10-16T16:04:16;5.54;;;5.52;;
50417;SDS011;36346;48.280;14.292;2022-10-16T16:07:06;5.20;;;5.13;;
50417;SDS011;36346;48.280;14.292;2022-10-16T16:09:37;3.79;;;3.76;;
50417;SDS011;36346;48.280;14.292;2022-10-16T16:12:05;3.39;;;3.36;;
50417;SDS011;36346;48.280;14.292;2022-10-16T16:14:33;3.09;;;3.08;;
50417;SDS011;36346;48.280;14.292;2022-10-16T16:17:01;3.01;;;3.01;;
50417;SDS011;36346;48.280;14.292;2022-10-16T16:19:29;3.06;;;3.05;;
50417;SDS011;36346;48.280;14.292;2022-10-16T16:21:58;2.93;;;2.93;;
50417;SDS011;36346;48.280;14.292;2022-10-16T16:24:26;2.92;;;2.91;;
50417;SDS011;36346;48.280;14.292;2022-10-16T16:26:54;2.82;;;2.81;;
50417;SDS011;36346;48.280;14.292;2022-10-16T16:29:22;11.38;;;11.28;;
50417;SDS011;36346;48.280;14.292;2022-10-16T16:31:50;50.29;;;49.09;;
50417;SDS011;36346;48.280;14.292;2022-10-16T16:34:25;5.93;;;5.87;;
50417;SDS011;36346;48.280;14.292;2022-10-16T16:36:54;7.64;;;7.56;;
50417;SDS011;36346;48.280;14.292;2022-10-16T16:39:22;5.83;;;5.79;;
50417;SDS011;36346;48.280;14.292;2022-10-16T16:41:51;6.48;;;6.45;;
50417;SDS011;36346;48.280;14.292;2022-10-16T16:44:19;4.89;;;4.89;;
50417;SDS011;36346;48.280;14.292;2022-10-16T16:46:47;4.20;;;4.19;;